Time;durP1;ratioP1;P1;durP2;ratioP2;P2;SDS_P1;SDS_P2;PMS_P1;PMS_P2;Temp;Humidity;BMP_temperature;BMP_pressure;BME280_temperature;BME280_humidity;BME280_pressure;Samples;Min_cycle;Max_cycle;Signal;HPM_P1;HPM_P2
2022/09/14 00:01:58;;;;;;;3.50;3.20;;;20.60;99.90;;;;;;5051758;28;20284;-68
2022/09/14 00:04:24;;;;;;;3.10;2.90;;;20.50;99.90;;;;;;5051972;28;20222;-68
2022/09/14 00:06:50;;;;;;;5.13;4.73;;;20.50;99.90;;;;;;5051862;28;20435;-67
2022/09/14 00:09:22;;;;;;;3.50;3.20;;;20.50;99.90;;;;;;5051043;28;20462;-68
2022/09/14 00:11:48;;;;;;;3.87;3.60;;;20.60;99.90;;;;;;5051816;28;20443;-68
2022/09/14 00:14:14;;;;;;;4.50;3.27;;;20.60;99.90;;;;;;5051736;28;20427;-68
2022/09/14 00:16:41;;;;;;;5.13;3.87;;;20.60;99.90;;;;;;5051685;28;20419;-68
2022/09/14 00:19:17;;;;;;;4.13;3.07;;;20.50;99.90;;;;;;5051076;28;20470;-68
2022/09/14 00:21:43;;;;;;;3.50;3.20;;;20.60;99.90;;;;;;5051559;28;20486;-68
2022/09/14 00:24:10;;;;;;;3.63;3.30;;;20.60;99.90;;;;;;5051717;28;20510;-68
2022/09/14 00:26:36;;;;;;;4.00;3.70;;;20.60;99.90;;;;;;5051876;28;20543;-68
2022/09/14 00:29:03;;;;;;;10.63;3.40;;;20.50;99.90;;;;;;5050980;28;20818;-68
2022/09/14 00:31:34;;;;;;;3.40;3.20;;;20.50;99.90;;;;;;5054123;28;20482;-68
2022/09/14 00:34:00;;;;;;;3.80;3.50;;;20.50;99.90;;;;;;5055662;28;20420;-68
2022/09/14 00:36:28;;;;;;;3.80;3.37;;;20.50;99.90;;;;;;5055588;28;20415;-68
2022/09/14 00:38:59;;;;;;;4.00;3.13;;;20.40;99.90;;;;;;5054758;28;20912;-68
2022/09/14 00:41:28;;;;;;;3.37;3.07;;;20.40;99.90;;;;;;5055442;28;20991;-68
2022/09/14 00:44:06;;;;;;;5.30;3.67;;;20.50;99.90;;;;;;5055459;28;20420;-68
2022/09/14 00:46:37;;;;;;;5.70;3.70;;;20.40;99.90;;;;;;5055416;28;20423;-68
2022/09/14 00:49:07;;;;;;;4.27;3.87;;;20.40;99.90;;;;;;5054599;28;20407;-67
2022/09/14 00:51:35;;;;;;;4.70;3.37;;;20.40;99.90;;;;;;5055241;28;20447;-68
2022/09/14 00:54:02;;;;;;;3.40;3.20;;;20.40;99.90;;;;;;5055207;28;20827;-68
2022/09/14 00:56:28;;;;;;;3.77;3.43;;;20.40;99.90;;;;;;5055228;28;20428;-68
2022/09/14 00:58:56;;;;;;;3.50;3.30;;;20.50;99.90;;;;;;5054486;28;20561;-68
2022/09/14 01:01:21;;;;;;;6.83;3.80;;;20.50;99.90;;;;;;5054970;28;20462;-68
2022/09/14 01:03:47;;;;;;;3.20;2.80;;;20.50;99.90;;;;;;5055246;28;21024;-68
2022/09/14 01:06:31;;;;;;;3.53;3.20;;;20.50;99.90;;;;;;5055060;28;20169;-68
2022/09/14 01:09:23;;;;;;;2.93;2.73;;;20.40;99.90;;;;;;5054271;28;20180;-68
2022/09/14 01:12:06;;;;;;;4.10;3.80;;;20.30;99.90;;;;;;5054871;28;20538;-68
2022/09/14 01:15:08;;;;;;;5.13;3.60;;;20.20;99.90;;;;;;5054981;28;20757;-68
2022/09/14 01:18:09;;;;;;;6.43;4.30;;;20.10;99.90;;;;;;5054874;28;20499;-67
2022/09/14 01:20:54;;;;;;;4.17;3.67;;;20.10;99.90;;;;;;5046012;28;20495;-68
2022/09/14 01:23:50;;;;;;;4.53;3.93;;;19.90;99.90;;;;;;5054657;28;20435;-67
2022/09/14 01:26:42;;;;;;;12.43;4.63;;;19.70;99.90;;;;;;5054595;28;20416;-63
2022/09/14 01:29:18;;;;;;;12.30;3.30;;;19.00;99.90;;;;;;5050611;28;20424;-67
2022/09/14 01:31:54;;;;;;;14.60;5.43;;;18.30;99.90;;;;;;5054170;28;20444;-67
2022/09/14 01:34:33;;;;;;;3.70;3.10;;;18.10;99.90;;;;;;5054479;28;20424;-67
2022/09/14 01:37:11;;;;;;;8.13;3.30;;;18.10;99.90;;;;;;5054411;28;20866;-68
2022/09/14 01:39:58;;;;;;;6.80;3.77;;;18.20;99.90;;;;;;5053701;28;20759;-68
2022/09/14 01:42:26;;;;;;;4.83;3.70;;;18.30;99.90;;;;;;5053336;28;20472;-68
2022/09/14 01:44:57;;;;;;;19.87;6.10;;;18.40;99.90;;;;;;5054171;28;20427;-68
2022/09/14 01:47:50;;;;;;;37.40;7.70;;;18.50;99.90;;;;;;5054171;28;20422;-68
2022/09/14 01:50:23;;;;;;;8.43;5.00;;;18.50;99.90;;;;;;5053110;28;20456;-68
2022/09/14 01:53:04;;;;;;;11.67;5.93;;;18.30;99.90;;;;;;5054023;28;20890;-68
2022/09/14 01:55:37;;;;;;;12.93;6.70;;;18.40;99.90;;;;;;5053989;28;20412;-68
2022/09/14 01:58:22;;;;;;;7.00;5.93;;;18.40;99.90;;;;;;5054107;28;20813;-68
2022/09/14 02:00:49;;;;;;;7.40;5.93;;;18.40;99.90;;;;;;5054349;28;20513;-68
2022/09/14 02:03:22;;;;;;;7.60;6.73;;;18.40;99.90;;;;;;5054193;28;20420;-68
2022/09/14 02:05:59;;;;;;;7.67;6.90;;;18.50;99.90;;;;;;5053944;28;20427;-68
2022/09/14 02:08:28;;;;;;;6.60;6.00;;;18.50;99.90;;;;;;5053161;28;20430;-68
2022/09/14 02:10:54;;;;;;;8.03;7.17;;;18.50;99.90;;;;;;5053508;28;20459;-69
2022/09/14 02:13:20;;;;;;;8.57;7.27;;;18.50;99.90;;;;;;5053666;28;20884;-68
2022/09/14 02:15:45;;;;;;;11.70;7.47;;;18.60;99.90;;;;;;5053638;28;20459;-69
2022/09/14 02:18:11;;;;;;;9.97;7.40;;;18.50;99.90;;;;;;5053236;28;20211;-69
2022/09/14 02:20:43;;;;;;;9.10;6.70;;;18.50;99.90;;;;;;5053437;28;20638;-69
2022/09/14 02:23:09;;;;;;;7.80;7.00;;;18.40;99.90;;;;;;5053609;28;20177;-69
2022/09/14 02:25:35;;;;;;;7.30;6.70;;;18.40;99.90;;;;;;5053387;28;20935;-69
2022/09/14 02:28:02;;;;;;;7.07;6.40;;;18.60;99.90;;;;;;5053411;28;20182;-69
2022/09/14 02:30:32;;;;;;;8.70;7.83;;;18.40;99.90;;;;;;5052719;28;20840;-69
2022/09/14 02:33:14;;;;;;;9.70;7.63;;;18.30;99.90;;;;;;5053546;28;20461;-69
2022/09/14 02:35:53;;;;;;;8.03;7.03;;;18.30;99.90;;;;;;5053304;28;20404;-69
2022/09/14 02:38:37;;;;;;;8.37;7.67;;;18.40;99.90;;;;;;5052656;28;20514;-69
2022/09/14 02:41:08;;;;;;;8.80;6.80;;;18.30;99.90;;;;;;5053068;28;20461;-69
2022/09/14 02:43:51;;;;;;;8.03;7.20;;;18.30;99.90;;;;;;5053214;28;20408;-69
2022/09/14 02:46:25;;;;;;;9.30;7.27;;;18.20;99.90;;;;;;5053259;28;20420;-69
2022/09/14 02:49:05;;;;;;;7.50;6.90;;;18.20;99.90;;;;;;5052319;28;20411;-68
2022/09/14 02:51:35;;;;;;;7.23;6.40;;;18.20;99.90;;;;;;5052845;28;20964;-68
2022/09/14 02:54:07;;;;;;;8.03;7.23;;;18.20;99.90;;;;;;5053228;28;20477;-69
2022/09/14 02:56:34;;;;;;;11.30;6.63;;;18.20;99.90;;;;;;5052757;28;20416;-69
2022/09/14 02:59:00;;;;;;;7.40;6.80;;;18.20;99.90;;;;;;5052023;28;20499;-69
2022/09/14 03:01:26;;;;;;;6.90;6.40;;;18.20;99.90;;;;;;5053041;28;20529;-69
2022/09/14 03:03:52;;;;;;;6.97;6.27;;;18.20;99.90;;;;;;5052729;28;20169;-69
2022/09/14 03:06:19;;;;;;;7.70;7.00;;;18.20;99.90;;;;;;5051350;28;20587;-69
2022/09/14 03:08:45;;;;;;;6.70;6.20;;;18.20;99.90;;;;;;5052327;28;20428;-70
2022/09/14 03:11:10;;;;;;;8.23;7.50;;;18.20;99.90;;;;;;5052448;28;20459;-68
2022/09/14 03:13:36;;;;;;;8.10;7.43;;;18.00;99.90;;;;;;5051216;28;20431;-68
2022/09/14 03:16:07;;;;;;;9.47;8.47;;;18.00;99.90;;;;;;5052450;28;20193;-69
2022/09/14 03:18:34;;;;;;;7.77;6.97;;;18.00;99.90;;;;;;5051698;28;20412;-69
2022/09/14 03:21:11;;;;;;;13.03;11.63;;;18.00;99.90;;;;;;5052424;28;20539;-69
2022/09/14 03:23:40;;;;;;;9.43;8.53;;;18.10;99.90;;;;;;5052384;28;20423;-69
2022/09/14 03:26:13;;;;;;;8.77;7.97;;;18.10;99.90;;;;;;5052289;28;20424;-69
2022/09/14 03:28:39;;;;;;;9.37;8.43;;;18.20;99.90;;;;;;5051622;28;20431;-69
2022/09/14 03:31:07;;;;;;;10.00;8.13;;;18.20;99.90;;;;;;5052039;28;20538;-69
2022/09/14 03:33:32;;;;;;;7.87;6.40;;;18.20;99.90;;;;;;5052331;28;20508;-69
2022/09/14 03:35:58;;;;;;;8.70;7.90;;;18.30;99.90;;;;;;5052273;28;20502;-69
2022/09/14 03:38:26;;;;;;;7.77;6.70;;;18.20;99.90;;;;;;5051460;28;20245;-69
2022/09/14 03:40:52;;;;;;;8.27;7.57;;;18.20;99.90;;;;;;5052025;28;20201;-69
2022/09/14 03:43:18;;;;;;;8.20;6.83;;;18.10;99.90;;;;;;5052396;28;20475;-68
2022/09/14 03:45:44;;;;;;;7.03;6.43;;;18.10;99.90;;;;;;5052009;28;20162;-69
2022/09/14 03:48:10;;;;;;;9.53;6.63;;;17.90;99.90;;;;;;5051679;28;20426;-70
2022/09/14 03:50:37;;;;;;;7.17;6.10;;;17.70;99.90;;;;;;5051550;28;20197;-68
2022/09/14 03:53:03;;;;;;;7.30;6.70;;;17.60;99.90;;;;;;5051885;28;20463;-69
2022/09/14 03:55:29;;;;;;;7.50;6.87;;;17.60;99.90;;;;;;5051879;28;20443;-69
2022/09/14 03:57:55;;;;;;;7.87;7.27;;;17.60;99.90;;;;;;5052115;28;20423;-68
2022/09/14 04:00:21;;;;;;;7.57;7.07;;;17.60;99.90;;;;;;5051110;28;20556;-68
2022/09/14 04:02:47;;;;;;;8.33;7.57;;;17.60;99.90;;;;;;5051861;28;20162;-69
2022/09/14 04:05:12;;;;;;;9.87;8.97;;;17.60;99.90;;;;;;5051471;28;20412;-68
2022/09/14 04:07:38;;;;;;;7.97;7.37;;;17.60;99.90;;;;;;5051703;28;20173;-69
2022/09/14 04:10:05;;;;;;;9.57;8.67;;;17.60;99.90;;;;;;5050824;28;20697;-69
2022/09/14 04:12:37;;;;;;;9.37;8.73;;;17.70;99.90;;;;;;5051739;28;20169;-69
2022/09/14 04:15:05;;;;;;;11.83;7.80;;;17.80;99.90;;;;;;5051647;28;20514;-68
2022/09/14 04:17:30;;;;;;;10.20;9.40;;;17.80;99.90;;;;;;5051649;28;20415;-69
2022/09/14 04:19:59;;;;;;;8.40;7.80;;;17.90;99.90;;;;;;5051268;28;20416;-69
2022/09/14 04:22:24;;;;;;;9.00;8.27;;;18.00;99.90;;;;;;5052008;28;20181;-69
2022/09/14 04:24:50;;;;;;;12.60;8.47;;;18.00;99.90;;;;;;5051679;28;20416;-69
2022/09/14 04:27:15;;;;;;;10.27;8.27;;;18.00;99.90;;;;;;5051811;28;20181;-69
2022/09/14 04:29:41;;;;;;;7.60;7.00;;;18.00;99.90;;;;;;5050713;28;20212;-69
2022/09/14 04:32:06;;;;;;;8.27;7.47;;;18.00;99.90;;;;;;5051586;28;20587;-69
2022/09/14 04:34:32;;;;;;;10.90;8.40;;;18.00;99.90;;;;;;5051551;28;20181;-69
2022/09/14 04:36:57;;;;;;;8.23;7.50;;;18.10;99.90;;;;;;5051345;28;20257;-69
2022/09/14 04:39:24;;;;;;;8.20;7.50;;;18.00;99.90;;;;;;5050838;28;20181;-69
2022/09/14 04:41:49;;;;;;;8.00;7.17;;;18.10;99.90;;;;;;5051584;28;20181;-69
2022/09/14 04:44:15;;;;;;;7.60;7.03;;;18.00;99.90;;;;;;5051498;28;20418;-69
2022/09/14 04:46:41;;;;;;;10.43;9.57;;;17.90;99.90;;;;;;5051475;28;20162;-69
2022/09/14 04:49:07;;;;;;;6.37;5.97;;;17.90;99.90;;;;;;5050771;28;20654;-69
2022/09/14 04:51:34;;;;;;;8.00;7.40;;;17.80;99.90;;;;;;5051170;28;20262;-69
2022/09/14 04:54:01;;;;;;;8.60;7.90;;;17.80;99.90;;;;;;5051300;28;20424;-69
2022/09/14 04:56:29;;;;;;;7.63;6.80;;;17.80;99.90;;;;;;5051455;28;20503;-68
2022/09/14 04:58:59;;;;;;;8.90;8.20;;;17.90;99.90;;;;;;5050811;28;20460;-68
2022/09/14 05:01:28;;;;;;;9.80;7.27;;;17.90;99.90;;;;;;5051268;28;20428;-69
2022/09/14 05:03:54;;;;;;;9.37;8.10;;;17.90;99.90;;;;;;5051439;28;20469;-69
2022/09/14 05:06:23;;;;;;;7.83;7.23;;;17.90;99.90;;;;;;5051117;28;20507;-69
2022/09/14 05:08:50;;;;;;;7.97;7.37;;;17.90;99.90;;;;;;5050592;28;20428;-69
2022/09/14 05:11:18;;;;;;;10.87;9.73;;;17.90;99.90;;;;;;5051013;28;20496;-68
2022/09/14 05:13:44;;;;;;;9.37;8.57;;;17.90;99.90;;;;;;5051103;28;20428;-69
2022/09/14 05:16:17;;;;;;;9.20;8.50;;;17.90;99.90;;;;;;5051175;28;20419;-68
2022/09/14 05:18:43;;;;;;;10.47;9.47;;;17.90;99.90;;;;;;5052980;28;20170;-68
2022/09/14 05:21:11;;;;;;;8.97;8.30;;;18.00;99.90;;;;;;5054343;28;20462;-68
2022/09/14 05:23:36;;;;;;;10.20;9.20;;;18.10;99.90;;;;;;5054685;28;20451;-68
2022/09/14 05:26:03;;;;;;;10.47;9.57;;;18.20;99.90;;;;;;5054603;28;20471;-68
2022/09/14 05:28:29;;;;;;;9.77;8.77;;;18.20;99.90;;;;;;5053772;28;20169;-68
2022/09/14 05:30:55;;;;;;;10.90;9.90;;;18.30;99.90;;;;;;5054349;28;20513;-69
2022/09/14 05:33:21;;;;;;;9.30;8.60;;;18.30;99.90;;;;;;5054412;28;20424;-68
2022/09/14 05:35:48;;;;;;;10.97;10.10;;;18.40;99.90;;;;;;5054443;28;20236;-69
2022/09/14 05:38:13;;;;;;;9.73;9.03;;;18.40;99.90;;;;;;5053775;28;20510;-69
2022/09/14 05:40:39;;;;;;;10.20;9.37;;;18.50;99.90;;;;;;5054219;28;20550;-68
2022/09/14 05:43:05;;;;;;;9.23;8.33;;;18.60;99.90;;;;;;5054458;28;20595;-69
2022/09/14 05:45:31;;;;;;;9.40;8.50;;;18.60;99.90;;;;;;5054027;28;20631;-68
2022/09/14 05:48:01;;;;;;;9.37;8.47;;;18.70;99.90;;;;;;5053617;28;20512;-68
2022/09/14 05:50:26;;;;;;;9.67;8.50;;;18.70;99.90;;;;;;5053155;28;20593;-69
2022/09/14 05:52:52;;;;;;;10.00;9.20;;;18.80;99.90;;;;;;5054021;28;20511;-68
2022/09/14 05:55:17;;;;;;;8.80;8.00;;;18.80;99.90;;;;;;5054110;28;20174;-69
2022/09/14 05:57:48;;;;;;;8.50;7.87;;;18.90;99.90;;;;;;5053971;28;20230;-69
2022/09/14 06:00:14;;;;;;;10.00;9.10;;;18.90;99.90;;;;;;5052908;28;20242;-68
2022/09/14 06:02:45;;;;;;;8.90;8.07;;;19.00;99.90;;;;;;5052297;28;20925;-69
2022/09/14 06:05:11;;;;;;;10.13;8.80;;;19.00;99.90;;;;;;5053674;28;20419;-69
2022/09/14 06:07:36;;;;;;;8.70;7.93;;;19.00;99.90;;;;;;5053812;28;20915;-69
2022/09/14 06:10:02;;;;;;;12.90;11.87;;;19.10;99.90;;;;;;5052890;28;20284;-69
2022/09/14 06:12:27;;;;;;;8.97;8.00;;;19.10;99.90;;;;;;5053637;28;20556;-68
2022/09/14 06:14:53;;;;;;;8.43;7.43;;;19.20;99.90;;;;;;5053448;28;20177;-69
2022/09/14 06:17:18;;;;;;;6.83;6.33;;;19.20;99.90;;;;;;5053366;28;20174;-69
2022/09/14 06:19:44;;;;;;;8.93;8.13;;;19.30;99.90;;;;;;5052493;28;20170;-68
2022/09/14 06:22:09;;;;;;;8.83;8.10;;;19.40;99.90;;;;;;5053519;28;20200;-69
2022/09/14 06:24:36;;;;;;;7.50;6.73;;;19.50;99.90;;;;;;5053348;28;20177;-69
2022/09/14 06:27:01;;;;;;;9.90;8.90;;;19.50;99.90;;;;;;5053377;28;20165;-69
2022/09/14 06:29:27;;;;;;;7.80;7.00;;;19.60;99.90;;;;;;5051999;28;20788;-68
2022/09/14 06:31:53;;;;;;;8.13;6.87;;;19.70;99.90;;;;;;5052900;28;20190;-69
2022/09/14 06:34:18;;;;;;;8.60;8.00;;;19.70;99.90;;;;;;5053063;28;20173;-69
2022/09/14 06:36:44;;;;;;;8.53;7.20;;;19.80;99.90;;;;;;5049537;28;20481;-69
2022/09/14 06:39:10;;;;;;;7.27;6.67;;;19.90;99.90;;;;;;5034626;28;20180;-70
2022/09/14 06:41:35;;;;;;;8.63;7.87;;;19.90;99.90;;;;;;5027305;28;20201;-69
2022/09/14 06:44:02;;;;;;;9.70;6.80;;;20.00;99.90;;;;;;5046843;28;20204;-69
2022/09/14 06:46:30;;;;;;;8.30;7.50;;;20.00;99.90;;;;;;5055806;28;20185;-69
2022/09/14 06:49:06;;;;;;;8.93;7.30;;;19.90;99.90;;;;;;5032366;28;20425;-69
2022/09/14 06:51:34;;;;;;;7.80;6.50;;;19.90;99.90;;;;;;5049426;28;20474;-69
2022/09/14 06:54:01;;;;;;;8.37;7.60;;;19.90;99.90;;;;;;5042908;28;20801;-69
2022/09/14 06:56:30;;;;;;;7.53;6.63;;;19.90;99.90;;;;;;5051574;28;20420;-69
2022/09/14 06:58:57;;;;;;;7.47;6.87;;;19.90;99.90;;;;;;5031334;28;20456;-69
2022/09/14 07:01:24;;;;;;;6.60;5.93;;;20.00;99.90;;;;;;5051676;28;20458;-69
2022/09/14 07:03:51;;;;;;;6.83;6.40;;;20.10;99.90;;;;;;5052654;28;20431;-69
2022/09/14 07:06:21;;;;;;;8.00;6.67;;;20.20;99.90;;;;;;5042024;28;20944;-69
2022/09/14 07:08:48;;;;;;;7.93;7.27;;;20.30;99.90;;;;;;5050723;28;20550;-70
2022/09/14 07:11:16;;;;;;;7.40;6.37;;;20.50;99.90;;;;;;5046049;28;20455;-69
2022/09/14 07:13:42;;;;;;;7.90;6.20;;;20.50;99.90;;;;;;5037399;28;20987;-70
2022/09/14 07:16:08;;;;;;;6.03;5.63;;;20.50;99.90;;;;;;5032453;28;20913;-69
2022/09/14 07:18:34;;;;;;;6.57;5.60;;;20.70;99.90;;;;;;5045088;28;20424;-70
2022/09/14 07:21:20;;;;;;;5.30;5.00;;;20.90;99.90;;;;;;5065260;28;20458;-69
2022/09/14 07:23:47;;;;;;;5.87;5.33;;;21.00;99.90;;;;;;5047921;28;20436;-69
2022/09/14 07:26:15;;;;;;;5.60;5.10;;;21.00;99.90;;;;;;5032172;28;20949;-69
2022/09/14 07:28:42;;;;;;;8.20;7.50;;;21.10;99.90;;;;;;5031482;28;20836;-69
2022/09/14 07:31:22;;;;;;;8.37;7.60;;;21.10;99.90;;;;;;5037064;28;20544;-69
2022/09/14 07:33:54;;;;;;;6.30;5.80;;;21.20;99.90;;;;;;5032167;28;20428;-69
2022/09/14 07:36:21;;;;;;;5.23;4.73;;;21.30;99.90;;;;;;5048614;28;20431;-68
2022/09/14 07:38:46;;;;;;;6.43;5.90;;;21.40;99.90;;;;;;5049778;28;20412;-68
2022/09/14 07:41:12;;;;;;;5.53;5.03;;;21.50;99.90;;;;;;5049057;28;20809;-68
2022/09/14 07:43:38;;;;;;;5.73;5.33;;;21.60;99.90;;;;;;5040547;28;20186;-69
2022/09/14 07:46:05;;;;;;;5.40;5.10;;;21.70;99.90;;;;;;5031937;28;20162;-69
2022/09/14 07:48:31;;;;;;;7.40;5.30;;;21.90;99.90;;;;;;5039118;28;20581;-69
2022/09/14 07:51:09;;;;;;;5.10;4.70;;;22.10;99.90;;;;;;5047554;28;20467;-69
2022/09/14 07:53:39;;;;;;;5.30;4.80;;;22.20;99.90;;;;;;5051848;28;20815;-69
2022/09/14 07:56:06;;;;;;;7.33;5.20;;;22.30;99.90;;;;;;5041355;28;20451;-69
2022/09/14 07:58:32;;;;;;;5.63;4.93;;;22.50;99.90;;;;;;5050897;28;20422;-69
2022/09/14 08:01:00;;;;;;;4.50;4.10;;;22.60;99.90;;;;;;5048015;28;20504;-69
2022/09/14 08:03:27;;;;;;;5.23;4.73;;;22.60;99.90;;;;;;5050456;28;20428;-69
2022/09/14 08:06:09;;;;;;;7.53;5.00;;;22.80;99.90;;;;;;5051600;28;20478;-69
2022/09/14 08:08:37;;;;;;;6.87;4.80;;;22.90;99.90;;;;;;5050137;28;20432;-69
2022/09/14 08:11:11;;;;;;;10.73;5.43;;;23.30;99.90;;;;;;5047408;28;20830;-69
2022/09/14 08:13:42;;;;;;;5.37;4.50;;;23.50;99.90;;;;;;5050864;28;20413;-69
2022/09/14 08:16:08;;;;;;;4.83;4.47;;;23.60;99.90;;;;;;5051211;28;20776;-69
2022/09/14 08:18:35;;;;;;;4.03;3.40;;;23.70;99.90;;;;;;5050635;28;20783;-69
2022/09/14 08:21:05;;;;;;;4.73;4.23;;;23.80;99.90;;;;;;5062471;28;20884;-69
2022/09/14 08:23:32;;;;;;;4.90;4.20;;;23.90;99.90;;;;;;5051405;28;20466;-70
2022/09/14 08:26:03;;;;;;;4.23;3.90;;;24.10;99.90;;;;;;5051582;28;20999;-70
2022/09/14 08:28:29;;;;;;;5.80;4.70;;;24.30;99.90;;;;;;5049621;28;21042;-69
2022/09/14 08:30:54;;;;;;;5.80;4.00;;;24.30;99.90;;;;;;5046542;28;20471;-68
2022/09/14 08:33:20;;;;;;;4.30;4.00;;;24.30;99.90;;;;;;5046087;28;20183;-69
2022/09/14 08:35:45;;;;;;;4.00;3.70;;;24.20;99.90;;;;;;5031394;28;20228;-69
2022/09/14 08:38:11;;;;;;;7.40;4.03;;;24.10;99.90;;;;;;5031244;28;20212;-69
2022/09/14 08:40:46;;;;;;;6.27;5.73;;;24.40;99.90;;;;;;5033606;28;20213;-69
2022/09/14 08:43:13;;;;;;;6.23;4.00;;;24.20;99.90;;;;;;5031586;28;20260;-69
2022/09/14 08:45:41;;;;;;;5.70;3.90;;;24.00;99.90;;;;;;5031530;28;20930;-69
2022/09/14 08:48:30;;;;;;;7.70;4.10;;;23.90;99.90;;;;;;5037124;28;20553;-70
2022/09/14 08:50:55;;;;;;;4.20;3.80;;;24.00;99.90;;;;;;5047520;28;20835;-69
2022/09/14 08:53:22;;;;;;;4.57;4.20;;;24.20;99.90;;;;;;5042947;28;20417;-69
2022/09/14 08:55:55;;;;;;;4.20;3.90;;;24.20;99.90;;;;;;5035271;28;20182;-69
2022/09/14 08:58:50;;;;;;;5.40;4.10;;;24.20;99.90;;;;;;5033992;28;20427;-69
2022/09/14 09:01:42;;;;;;;3.83;3.53;;;24.20;99.90;;;;;;5036705;28;20946;-69
2022/09/14 09:04:25;;;;;;;6.73;3.83;;;24.30;99.90;;;;;;4993417;28;20980;-69
2022/09/14 09:06:57;;;;;;;4.10;3.70;;;24.90;99.90;;;;;;5034518;28;20445;-70
2022/09/14 09:09:43;;;;;;;7.33;4.00;;;25.20;99.90;;;;;;5039818;28;20470;-69
2022/09/14 09:12:14;;;;;;;3.07;2.83;;;26.00;99.90;;;;;;5054352;28;20721;-70
2022/09/14 09:15:02;;;;;;;4.57;3.80;;;26.40;99.90;;;;;;5053920;28;20439;-70
2022/09/14 09:17:37;;;;;;;3.77;3.20;;;26.70;99.90;;;;;;5054106;28;20461;-70
2022/09/14 09:20:12;;;;;;;4.33;3.93;;;27.00;99.90;;;;;;5050132;28;21157;-70
2022/09/14 09:22:48;;;;;;;4.47;3.60;;;27.00;99.90;;;;;;5043070;28;20443;-70
2022/09/14 09:25:22;;;;;;;3.60;3.40;;;27.40;99.90;;;;;;5034639;28;20869;-70
2022/09/14 09:27:48;;;;;;;3.90;3.50;;;28.00;99.90;;;;;;5039647;28;20420;-70
2022/09/14 09:30:15;;;;;;;2.90;2.70;;;28.20;99.90;;;;;;5049930;28;20992;-70
2022/09/14 09:32:40;;;;;;;4.00;3.70;;;28.30;99.90;;;;;;5043970;28;20432;-71
2022/09/14 09:35:07;;;;;;;4.53;3.67;;;28.50;99.90;;;;;;5054412;28;20420;-70
2022/09/14 09:37:37;;;;;;;3.70;3.10;;;28.60;99.90;;;;;;5053184;28;20583;-70
2022/09/14 09:40:16;;;;;;;4.07;3.03;;;28.70;99.90;;;;;;5049593;28;20481;-69
2022/09/14 09:43:04;;;;;;;6.00;3.57;;;28.90;99.90;;;;;;5053601;28;20416;-70
2022/09/14 09:45:48;;;;;;;4.77;2.90;;;29.70;99.90;;;;;;5053620;28;20477;-70
2022/09/14 09:48:16;;;;;;;4.10;3.13;;;30.20;99.90;;;;;;5052212;28;20404;-70
2022/09/14 09:51:00;;;;;;;3.80;3.40;;;30.00;99.90;;;;;;5050005;28;21007;-70
2022/09/14 09:53:26;;;;;;;4.10;3.50;;;30.10;99.90;;;;;;5054081;28;20416;-70
2022/09/14 09:55:52;;;;;;;4.63;3.43;;;30.10;99.90;;;;;;5053158;28;20463;-70
2022/09/14 09:58:22;;;;;;;3.80;3.00;;;30.00;99.90;;;;;;5053238;28;20448;-70
2022/09/14 10:01:02;;;;;;;4.40;3.27;;;29.60;99.90;;;;;;5041296;28;20202;-70
2022/09/14 10:03:39;;;;;;;4.97;3.90;;;29.40;99.90;;;;;;5032995;28;20428;-71
2022/09/14 10:06:13;;;;;;;4.80;3.20;;;30.20;99.90;;;;;;5033553;28;20423;-69
2022/09/14 10:08:42;;;;;;;4.00;3.40;;;29.90;99.90;;;;;;5032134;28;20880;-70
2022/09/14 10:11:28;;;;;;;5.00;4.60;;;29.40;99.90;;;;;;5050639;28;20985;-70
2022/09/14 10:13:55;;;;;;;6.50;3.23;;;29.20;99.90;;;;;;5052462;28;20459;-70
2022/09/14 10:16:20;;;;;;;5.70;3.77;;;29.20;99.90;;;;;;5052970;28;20416;-70
2022/09/14 10:18:49;;;;;;;8.23;3.37;;;29.40;99.90;;;;;;5051251;28;20426;-70
2022/09/14 10:21:17;;;;;;;4.40;3.90;;;30.00;99.90;;;;;;5062146;22;20222;-68
2022/09/14 10:23:43;;;;;;;4.33;4.03;;;29.80;99.90;;;;;;5052412;28;20466;-69
2022/09/14 10:26:11;;;;;;;6.17;3.97;;;29.50;99.90;;;;;;5042978;28;20420;-68
2022/09/14 10:28:39;;;;;;;4.23;3.83;;;28.90;99.90;;;;;;5052675;28;21026;-69
2022/09/14 10:31:14;;;;;;;5.10;3.90;;;28.40;99.90;;;;;;5048408;28;20558;-67
2022/09/14 10:33:41;;;;;;;4.13;3.40;;;27.80;99.90;;;;;;5020768;28;20436;-69
2022/09/14 10:36:17;;;;;;;3.17;2.90;;;28.20;99.90;;;;;;5022700;28;20922;-66
2022/09/14 10:38:51;;;;;;;5.93;3.27;;;28.20;99.90;;;;;;5020478;28;20792;-66
2022/09/14 10:41:38;;;;;;;4.30;3.30;;;28.30;99.90;;;;;;5030737;28;20488;-66
2022/09/14 10:44:42;;;;;;;3.27;3.07;;;28.50;99.90;;;;;;5018828;28;20438;-65
2022/09/14 10:47:37;;;;;;;6.17;3.03;;;28.10;99.90;;;;;;5022707;28;20832;-65
2022/09/14 10:50:51;;;;;;;3.20;2.90;;;27.90;99.90;;;;;;5027034;28;20546;-65
2022/09/14 10:53:25;;;;;;;6.17;3.17;;;27.70;99.90;;;;;;4945601;29;20601;-66
2022/09/14 10:56:23;;;;;;;3.77;3.47;;;27.70;99.90;;;;;;5011315;28;20520;-65
2022/09/14 10:59:05;;;;;;;3.43;3.10;;;27.80;99.90;;;;;;5021850;28;20416;-66
2022/09/14 11:01:49;;;;;;;3.17;2.97;;;28.50;99.90;;;;;;5020163;28;20499;-65
2022/09/14 11:04:41;;;;;;;5.80;3.30;;;28.70;99.90;;;;;;5021370;28;20428;-65
2022/09/14 11:07:25;;;;;;;3.30;3.00;;;28.80;99.90;;;;;;5025300;28;20440;-65
2022/09/14 11:10:17;;;;;;;3.70;3.00;;;28.90;99.90;;;;;;5018178;28;20464;-72
2022/09/14 11:13:13;;;;;;;3.77;3.57;;;29.80;99.90;;;;;;5020918;28;20438;-72
2022/09/14 11:16:01;;;;;;;4.53;3.23;;;31.30;99.90;;;;;;5020090;28;20475;-72
2022/09/14 11:18:35;;;;;;;6.33;3.20;;;32.00;99.90;;;;;;5030959;28;21132;-72
2022/09/14 11:21:17;;;;;;;6.27;3.27;;;32.50;97.80;;;;;;5028641;28;20469;-72
2022/09/14 11:23:53;;;;;;;4.10;3.60;;;32.90;96.20;;;;;;5028380;28;20435;-73
2022/09/14 11:26:39;;;;;;;3.20;2.80;;;32.80;95.70;;;;;;5025522;28;20520;-72
2022/09/14 11:29:43;;;;;;;4.30;3.93;;;33.50;94.50;;;;;;5029899;28;20516;-72
2022/09/14 11:32:16;;;;;;;3.50;3.20;;;33.20;94.10;;;;;;5023855;28;20460;-73
2022/09/14 11:34:47;;;;;;;3.60;3.30;;;33.20;92.20;;;;;;5021299;28;20495;-73
2022/09/14 11:37:19;;;;;;;2.60;2.40;;;31.80;93.70;;;;;;5015398;28;20800;-73
2022/09/14 11:39:59;;;;;;;3.70;3.07;;;31.50;94.00;;;;;;5022036;28;20483;-73
2022/09/14 11:42:33;;;;;;;5.53;4.27;;;33.50;92.30;;;;;;5011550;28;20413;-73
2022/09/14 11:45:13;;;;;;;2.63;2.43;;;35.00;87.70;;;;;;5011176;28;20945;-70
2022/09/14 11:47:46;;;;;;;2.80;2.37;;;34.80;83.60;;;;;;5027459;28;20427;-70
2022/09/14 11:50:26;;;;;;;3.03;2.83;;;34.00;84.10;;;;;;5027472;28;20453;-73
2022/09/14 11:53:11;;;;;;;3.07;2.70;;;32.80;86.90;;;;;;5031186;28;20510;-73
2022/09/14 11:55:42;;;;;;;3.57;3.13;;;31.00;91.30;;;;;;5032128;28;20500;-72
2022/09/14 11:58:18;;;;;;;4.73;4.00;;;29.70;93.80;;;;;;5030899;28;20571;-72
2022/09/14 12:01:04;;;;;;;3.77;3.47;;;28.90;96.40;;;;;;5025907;28;20828;-72
2022/09/14 12:03:50;;;;;;;3.40;3.10;;;28.70;97.40;;;;;;5028341;28;20560;-72
2022/09/14 12:06:35;;;;;;;4.70;2.73;;;28.20;99.10;;;;;;5011456;28;20428;-72
2022/09/14 12:09:16;;;;;;;2.90;2.60;;;27.90;99.90;;;;;;5010972;28;20490;-72
2022/09/14 12:11:47;;;;;;;3.57;3.10;;;27.60;99.90;;;;;;5028607;28;20464;-72
2022/09/14 12:14:23;;;;;;;7.00;3.50;;;27.40;99.90;;;;;;5031540;28;20421;-72
2022/09/14 12:17:23;;;;;;;3.20;3.00;;;27.20;99.90;;;;;;5022510;28;20421;-71
2022/09/14 12:19:52;;;;;;;3.87;3.40;;;27.00;99.90;;;;;;5017707;28;20500;-73
2022/09/14 12:22:36;;;;;;;3.33;3.13;;;27.10;99.90;;;;;;5030304;28;20445;-72
2022/09/14 12:25:10;;;;;;;4.43;3.47;;;27.10;99.90;;;;;;5013037;28;20422;-72
2022/09/14 12:27:38;;;;;;;3.50;3.20;;;26.90;99.90;;;;;;5014295;28;20402;-72
2022/09/14 12:30:37;;;;;;;3.50;3.03;;;26.60;99.90;;;;;;5025450;28;20556;-72
2022/09/14 12:33:23;;;;;;;3.67;3.37;;;26.30;99.90;;;;;;5035582;28;20447;-72
2022/09/14 12:35:49;;;;;;;3.93;3.53;;;26.10;99.90;;;;;;5032894;28;20424;-73
2022/09/14 12:38:29;;;;;;;4.40;4.00;;;25.80;99.90;;;;;;5014909;28;20410;-72
2022/09/14 12:40:56;;;;;;;4.23;3.67;;;25.30;99.90;;;;;;5029812;28;20568;-71
2022/09/14 12:43:36;;;;;;;4.63;3.50;;;24.60;99.90;;;;;;5034594;28;20425;-72
2022/09/14 12:46:04;;;;;;;3.60;3.30;;;23.70;99.90;;;;;;5035407;28;20506;-71
2022/09/14 12:48:48;;;;;;;4.53;4.13;;;23.10;99.90;;;;;;5029911;28;20453;-72
2022/09/14 12:51:35;;;;;;;4.80;3.83;;;22.60;99.90;;;;;;5032969;28;20554;-72
2022/09/14 12:54:21;;;;;;;4.87;3.87;;;22.20;99.90;;;;;;5034655;28;20424;-72
2022/09/14 12:57:06;;;;;;;5.07;4.43;;;21.90;99.90;;;;;;5034796;28;20442;-72
2022/09/14 13:00:09;;;;;;;7.03;4.27;;;21.80;99.90;;;;;;5027480;28;20414;-72
2022/09/14 13:02:47;;;;;;;6.43;4.80;;;21.60;99.90;;;;;;5017942;28;20431;-73
2022/09/14 13:05:16;;;;;;;6.17;5.57;;;21.50;99.90;;;;;;5015332;28;20421;-73
2022/09/14 13:07:43;;;;;;;7.43;5.23;;;21.30;99.90;;;;;;5023680;28;20426;-73
2022/09/14 13:10:19;;;;;;;7.17;6.20;;;21.20;99.90;;;;;;5023305;28;20787;-74
2022/09/14 13:12:46;;;;;;;7.20;5.50;;;21.20;99.90;;;;;;5034069;28;20469;-73